Current Weather

Biggin Hill

Biggin Hill, United Kingdom (EGKB)

Report from: Saturday, February 24, 2024 7:20 PM GMT
Current time: Saturday, February 24, 2024 7:36 PM GMT

Nearby weather – Weather history – Daily summaries
Weather forecast

Temperature4.0°C (39.2°F)
Wind chill2.7°C (36.9°F)
Dew point3.0°C (37.4°F)
Winds 3 kts (1.5 m/s, 3.5 mph) Southwest (220°)
Visibility6.2 mi. (10 km)
Clouds Scattered clouds 3,000 ft. (914 m)
Altimeter29.44 in.Hg (997 mB)
Relative humidity93 %
Density altitude-663 ft. (-202 m)
Flight conditions Visual Meteorological Conditions
Raw dataEGKB 241920Z 22003KT 9999 SCT030 04/03 Q0997
An error has occurred. This application may no longer respond until reloaded. Reload 🗙